createdAt,value
2022-09-15T00:00:49.292Z,20.20
2022-09-15T00:03:16.098Z,20.20
2022-09-15T00:05:42.845Z,20.10
2022-09-15T00:08:09.508Z,20.10
2022-09-15T00:10:36.299Z,20.00
2022-09-15T00:13:03.084Z,20.00
2022-09-15T00:15:29.776Z,19.90
2022-09-15T00:17:56.484Z,19.90
2022-09-15T00:20:23.210Z,19.90
2022-09-15T00:22:50.006Z,19.80
2022-09-15T00:25:16.881Z,19.70
2022-09-15T00:27:43.929Z,19.70
2022-09-15T00:30:10.815Z,19.60
2022-09-15T00:32:37.609Z,19.50
2022-09-15T00:35:04.871Z,19.40
2022-09-15T00:37:31.559Z,19.30
2022-09-15T00:39:58.393Z,19.30
2022-09-15T00:42:25.170Z,19.30
2022-09-15T00:45:02.042Z,19.30
2022-09-15T00:47:34.007Z,19.20
2022-09-15T00:50:03.458Z,19.20
2022-09-15T00:52:42.754Z,19.20
2022-09-15T00:55:11.903Z,19.20
2022-09-15T00:57:45.831Z,19.10
2022-09-15T01:00:14.247Z,19.10
2022-09-15T01:02:42.382Z,19.10
2022-09-15T01:05:10.937Z,19.10
2022-09-15T01:07:43.551Z,19.00
2022-09-15T01:10:13.606Z,19.00
2022-09-15T01:12:40.617Z,19.00
2022-09-15T01:15:07.706Z,18.90
2022-09-15T01:17:59.624Z,18.90
2022-09-15T01:20:39.153Z,18.80
2022-09-15T01:23:08.654Z,18.70
2022-09-15T01:25:38.321Z,18.60
2022-09-15T01:28:13.943Z,18.60
2022-09-15T01:30:49.937Z,18.60
2022-09-15T01:33:16.615Z,18.60
2022-09-15T01:35:43.244Z,18.60
2022-09-15T01:38:20.941Z,18.60
2022-09-15T01:40:52.254Z,18.50
2022-09-15T01:43:20.534Z,18.50
2022-09-15T01:45:48.328Z,18.50
2022-09-15T01:48:16.762Z,18.40
2022-09-15T01:50:46.224Z,18.40
2022-09-15T01:53:15.863Z,18.40
2022-09-15T01:55:54.144Z,18.40
2022-09-15T01:58:20.912Z,18.40
2022-09-15T02:01:31.329Z,18.40
2022-09-15T02:04:02.092Z,18.40
2022-09-15T02:06:40.686Z,18.40
2022-09-15T02:09:27.632Z,18.40
2022-09-15T02:11:58.461Z,18.40
2022-09-15T02:14:36.273Z,18.40
2022-09-15T02:17:05.497Z,18.40
2022-09-15T02:19:39.024Z,18.30
2022-09-15T02:22:10.662Z,18.30
2022-09-15T02:24:42.297Z,18.30
2022-09-15T02:27:10.985Z,18.30
2022-09-15T02:29:38.769Z,18.20
2022-09-15T02:32:07.541Z,18.20
2022-09-15T02:34:40.362Z,18.10
2022-09-15T02:37:08.356Z,18.00
2022-09-15T02:39:37.207Z,18.00
2022-09-15T02:42:04.083Z,18.00
2022-09-15T02:44:31.126Z,18.10
2022-09-15T02:46:58.739Z,18.10
2022-09-15T02:49:25.429Z,18.10
2022-09-15T02:51:52.150Z,18.10
2022-09-15T02:54:19.011Z,18.10
2022-09-15T02:56:47.098Z,18.10
2022-09-15T02:59:14.124Z,18.10
2022-09-15T03:01:40.901Z,18.10
2022-09-15T03:04:07.641Z,18.10
2022-09-15T03:06:35.192Z,18.00
2022-09-15T03:09:04.141Z,18.00
2022-09-15T03:11:30.963Z,18.00
2022-09-15T03:13:58.750Z,18.00
2022-09-15T03:16:25.947Z,18.00
2022-09-15T03:18:54.378Z,17.90
2022-09-15T03:21:21.611Z,18.00
2022-09-15T03:23:48.279Z,17.90
2022-09-15T03:26:14.963Z,17.90
2022-09-15T03:28:42.011Z,17.80
2022-09-15T03:31:09.408Z,17.80
2022-09-15T03:33:36.643Z,17.70
2022-09-15T03:36:03.653Z,17.70
2022-09-15T03:38:30.513Z,17.60
2022-09-15T03:41:01.570Z,17.60
2022-09-15T03:43:29.279Z,17.60
2022-09-15T03:45:56.820Z,17.50
2022-09-15T03:48:24.293Z,17.40
2022-09-15T03:50:51.152Z,17.30
2022-09-15T03:53:18.351Z,17.30
2022-09-15T03:55:45.521Z,17.40
2022-09-15T03:58:12.844Z,17.40
2022-09-15T04:00:40.781Z,17.30
2022-09-15T04:03:07.600Z,17.30
2022-09-15T04:05:34.909Z,17.30
2022-09-15T04:08:01.745Z,17.30
2022-09-15T04:10:29.308Z,17.30
2022-09-15T04:12:56.062Z,17.30
2022-09-15T04:15:23.033Z,17.30
2022-09-15T04:17:49.730Z,17.30
2022-09-15T04:20:17.224Z,17.20
2022-09-15T04:22:44.646Z,17.20
2022-09-15T04:25:12.093Z,17.20
2022-09-15T04:27:39.185Z,17.10
2022-09-15T04:30:06.723Z,17.10
2022-09-15T04:32:33.574Z,17.10
2022-09-15T04:35:00.345Z,17.10
2022-09-15T04:37:27.025Z,17.10
2022-09-15T04:39:53.960Z,16.90
2022-09-15T04:42:21.737Z,16.80
2022-09-15T04:44:48.396Z,16.80
2022-09-15T04:47:15.284Z,16.70
2022-09-15T04:49:42.034Z,16.70
2022-09-15T04:52:10.119Z,16.70
2022-09-15T04:54:36.919Z,16.70
2022-09-15T04:57:03.756Z,16.70
2022-09-15T04:59:30.470Z,16.80
2022-09-15T05:01:57.311Z,16.80
2022-09-15T05:04:24.166Z,16.70
2022-09-15T05:06:50.907Z,16.80
2022-09-15T05:09:17.643Z,16.80
2022-09-15T05:11:44.361Z,16.80
2022-09-15T05:14:11.341Z,16.90
2022-09-15T05:16:38.328Z,16.90
2022-09-15T05:19:05.120Z,16.90
2022-09-15T05:21:32.473Z,16.90
2022-09-15T05:23:59.146Z,16.90
2022-09-15T05:26:27.101Z,16.90
2022-09-15T05:28:53.992Z,16.90
2022-09-15T05:31:28.013Z,17.00
2022-09-15T05:33:54.860Z,17.00
2022-09-15T05:36:25.004Z,17.10
2022-09-15T05:38:52.899Z,17.00
2022-09-15T05:41:20.840Z,17.10
2022-09-15T05:43:49.150Z,17.10
2022-09-15T05:46:16.432Z,17.10
2022-09-15T05:48:43.166Z,17.10
2022-09-15T05:51:09.846Z,17.10
2022-09-15T05:53:36.910Z,17.10
2022-09-15T05:56:07.749Z,17.10
2022-09-15T05:58:34.712Z,17.20
2022-09-15T06:01:08.651Z,17.20
2022-09-15T06:03:35.845Z,17.20
2022-09-15T06:06:03.997Z,17.20
2022-09-15T06:08:31.917Z,17.20
2022-09-15T06:11:02.857Z,17.20
2022-09-15T06:13:29.541Z,17.30
2022-09-15T06:16:00.560Z,17.30
2022-09-15T06:18:27.293Z,17.30
2022-09-15T06:20:54.034Z,17.40
2022-09-15T06:23:20.752Z,17.40
2022-09-15T06:25:47.478Z,17.40
2022-09-15T06:28:14.177Z,17.50
2022-09-15T06:30:40.890Z,17.50
2022-09-15T06:33:07.563Z,17.60
2022-09-15T06:35:34.228Z,17.70
2022-09-15T06:38:01.058Z,17.70
2022-09-15T06:40:27.780Z,17.80
2022-09-15T06:42:55.888Z,17.90
2022-09-15T06:45:22.765Z,17.90
2022-09-15T06:48:07.376Z,18.00
2022-09-15T06:50:38.232Z,18.00
2022-09-15T06:53:04.878Z,18.10
2022-09-15T06:55:32.034Z,18.30
2022-09-15T06:58:00.035Z,18.40
2022-09-15T07:00:29.333Z,18.60
2022-09-15T07:02:56.140Z,18.70
2022-09-15T07:05:25.628Z,18.80
2022-09-15T07:07:52.544Z,19.00
2022-09-15T07:10:19.337Z,19.20
2022-09-15T07:12:46.347Z,19.40
2022-09-15T07:15:13.144Z,19.50
2022-09-15T07:17:39.822Z,19.50
2022-09-15T07:20:06.666Z,19.60
2022-09-15T07:22:33.380Z,19.80
2022-09-15T07:25:00.042Z,20.20
2022-09-15T07:27:31.543Z,20.40
2022-09-15T07:29:59.181Z,20.50
2022-09-15T07:32:26.059Z,20.50
2022-09-15T07:34:55.498Z,20.60
2022-09-15T07:37:24.849Z,20.70
2022-09-15T07:39:51.551Z,21.10
2022-09-15T07:42:18.626Z,21.50
2022-09-15T07:44:45.331Z,21.70
2022-09-15T07:47:12.016Z,21.90
2022-09-15T07:49:38.782Z,22.00
2022-09-15T07:52:05.492Z,22.20
2022-09-15T07:54:32.157Z,22.40
2022-09-15T07:56:58.865Z,22.50
2022-09-15T07:59:25.760Z,22.70
2022-09-15T08:01:52.521Z,22.80
2022-09-15T08:04:19.288Z,23.00
2022-09-15T08:06:46.022Z,23.10
2022-09-15T08:09:17.686Z,23.10
2022-09-15T08:11:44.418Z,23.30
2022-09-15T08:14:11.087Z,23.30
2022-09-15T08:16:38.537Z,23.50
2022-09-15T08:19:05.452Z,23.50
2022-09-15T08:21:32.177Z,23.70
2022-09-15T08:23:59.746Z,23.80
2022-09-15T08:26:27.485Z,23.90
2022-09-15T08:28:54.302Z,23.90
2022-09-15T08:31:21.369Z,24.00
2022-09-15T08:33:52.431Z,24.00
2022-09-15T08:36:19.182Z,24.10
2022-09-15T08:38:46.565Z,24.40
2022-09-15T08:41:32.023Z,24.50
2022-09-15T08:44:02.945Z,24.60
2022-09-15T08:46:55.986Z,24.90
2022-09-15T08:49:47.419Z,25.00
2022-09-15T08:52:17.130Z,25.00
2022-09-15T08:54:43.861Z,25.20
2022-09-15T08:57:14.234Z,25.30
2022-09-15T08:59:40.981Z,25.10
2022-09-15T09:02:13.531Z,25.10
2022-09-15T09:04:49.634Z,25.30
2022-09-15T09:07:28.253Z,25.50
2022-09-15T09:09:58.155Z,25.60
2022-09-15T09:12:45.044Z,25.50
2022-09-15T09:15:16.475Z,25.30
2022-09-15T09:17:54.987Z,25.00
2022-09-15T09:20:24.743Z,25.20
2022-09-15T09:22:53.746Z,25.40
2022-09-15T09:25:27.634Z,25.60
2022-09-15T09:27:56.493Z,25.80
2022-09-15T09:30:23.840Z,25.90
2022-09-15T09:33:09.100Z,25.40
2022-09-15T09:35:43.770Z,25.50
2022-09-15T09:38:11.510Z,25.90
2022-09-15T09:40:41.165Z,25.90
2022-09-15T09:43:08.372Z,26.20
2022-09-15T09:45:35.311Z,26.20
2022-09-15T09:48:18.117Z,26.40
2022-09-15T09:50:45.124Z,26.50
2022-09-15T09:53:18.130Z,26.30
2022-09-15T09:55:45.950Z,26.40
2022-09-15T09:58:14.564Z,26.40
2022-09-15T10:00:41.583Z,26.50
2022-09-15T10:03:19.393Z,26.40
2022-09-15T10:05:59.626Z,26.50
2022-09-15T10:08:26.345Z,26.50
2022-09-15T10:10:54.149Z,26.80
2022-09-15T10:13:21.488Z,26.90
2022-09-15T10:16:02.378Z,27.10
2022-09-15T10:18:42.571Z,27.20
2022-09-15T10:21:09.890Z,27.20
2022-09-15T10:23:36.649Z,27.20
2022-09-15T10:26:15.645Z,27.30
2022-09-15T10:29:01.041Z,27.50
2022-09-15T10:31:30.692Z,27.50
2022-09-15T10:33:59.013Z,27.30
2022-09-15T10:36:30.229Z,27.10
2022-09-15T10:39:21.616Z,27.30
2022-09-15T10:41:57.006Z,27.30
2022-09-15T10:44:32.471Z,27.50
2022-09-15T10:47:05.261Z,27.50
2022-09-15T10:49:51.117Z,27.70
2022-09-15T10:52:36.539Z,27.80
2022-09-15T10:55:32.074Z,28.00
2022-09-15T10:58:19.514Z,28.20
2022-09-15T11:00:53.106Z,28.40
2022-09-15T11:03:27.687Z,28.40
2022-09-15T11:06:03.732Z,28.30
2022-09-15T11:08:33.599Z,28.30
2022-09-15T11:11:00.662Z,28.40
2022-09-15T11:13:31.104Z,28.50
2022-09-15T11:16:29.200Z,28.60
2022-09-15T11:18:56.320Z,28.40
2022-09-15T11:21:27.719Z,28.20
2022-09-15T11:23:54.365Z,28.50
2022-09-15T11:26:28.706Z,28.50
2022-09-15T11:29:15.627Z,28.60
2022-09-15T11:31:44.152Z,28.60
2022-09-15T11:34:11.514Z,28.80
2022-09-15T11:36:49.406Z,29.00
2022-09-15T11:39:36.339Z,29.10
2022-09-15T11:42:12.386Z,29.20
2022-09-15T11:44:43.517Z,29.30
2022-09-15T11:47:10.467Z,29.60
2022-09-15T11:49:37.149Z,29.60
2022-09-15T11:52:11.331Z,29.60
2022-09-15T11:54:43.064Z,29.50
2022-09-15T11:57:21.285Z,29.30
2022-09-15T11:59:59.052Z,29.00
2022-09-15T12:02:46.083Z,28.90
2022-09-15T12:05:19.686Z,28.70
2022-09-15T12:07:58.323Z,28.60
2022-09-15T12:10:37.600Z,28.70
2022-09-15T12:13:05.166Z,28.60
2022-09-15T12:15:32.096Z,29.00
2022-09-15T12:18:06.731Z,29.00
2022-09-15T12:21:15.017Z,29.40
2022-09-15T12:23:45.750Z,29.30
2022-09-15T12:26:17.676Z,29.30
2022-09-15T12:28:51.182Z,29.60
2022-09-15T12:31:25.778Z,29.60
2022-09-15T12:33:57.532Z,29.80
2022-09-15T12:36:30.451Z,29.90
2022-09-15T12:38:58.885Z,29.70
2022-09-15T12:41:25.659Z,29.30
2022-09-15T12:43:54.306Z,29.80
2022-09-15T12:46:21.456Z,30.30
2022-09-15T12:48:49.233Z,30.60
2022-09-15T12:51:24.050Z,30.70
2022-09-15T12:53:54.081Z,30.30
2022-09-15T12:56:26.764Z,30.40
2022-09-15T12:58:54.098Z,30.40
2022-09-15T13:01:27.245Z,30.70
2022-09-15T13:03:55.225Z,31.00
2022-09-15T13:06:23.036Z,30.60
2022-09-15T13:08:52.061Z,30.90
2022-09-15T13:11:25.509Z,30.80
2022-09-15T13:14:04.193Z,30.90
2022-09-15T13:16:33.071Z,31.10
2022-09-15T13:19:16.936Z,31.40
2022-09-15T13:21:46.120Z,31.90
2022-09-15T13:24:20.988Z,32.10
2022-09-15T13:26:56.916Z,32.10
2022-09-15T13:29:26.149Z,32.20
2022-09-15T13:32:21.753Z,32.40
2022-09-15T13:35:17.296Z,32.20
2022-09-15T13:38:14.002Z,31.70
2022-09-15T13:41:18.549Z,32.00
2022-09-15T13:44:21.247Z,32.20
2022-09-15T13:47:02.970Z,31.90
2022-09-15T13:49:39.884Z,31.80
2022-09-15T13:52:19.339Z,32.00
2022-09-15T13:55:21.783Z,32.00
2022-09-15T14:01:15.446Z,31.00
2022-09-15T14:04:05.258Z,31.30
2022-09-15T14:06:37.846Z,31.70
2022-09-15T14:09:47.662Z,32.20
2022-09-15T14:12:16.570Z,32.10
2022-09-15T14:14:51.469Z,31.20
2022-09-15T14:17:27.282Z,31.10
2022-09-15T14:19:58.864Z,31.30
2022-09-15T14:22:32.064Z,31.20
2022-09-15T14:25:05.913Z,31.20
2022-09-15T14:27:35.246Z,31.30
2022-09-15T14:30:08.274Z,31.10
2022-09-15T14:32:38.683Z,30.90
2022-09-15T14:35:16.016Z,30.80
2022-09-15T14:38:03.969Z,30.50
2022-09-15T14:40:31.983Z,30.00
2022-09-15T14:42:58.757Z,29.80
2022-09-15T14:45:56.552Z,29.90
2022-09-15T14:48:26.879Z,30.10
2022-09-15T14:51:01.977Z,30.20
2022-09-15T14:53:30.675Z,30.20
2022-09-15T14:56:07.066Z,30.30
2022-09-15T14:58:41.778Z,30.20
2022-09-15T15:01:17.250Z,30.10
2022-09-15T15:03:49.913Z,30.00
2022-09-15T15:06:29.954Z,29.80
2022-09-15T15:09:05.370Z,29.50
2022-09-15T15:11:33.883Z,29.50
2022-09-15T15:14:00.713Z,29.30
2022-09-15T15:16:28.641Z,29.30
2022-09-15T15:18:57.303Z,29.30
2022-09-15T15:21:44.324Z,29.40
2022-09-15T15:24:10.998Z,29.50
2022-09-15T15:26:38.656Z,29.50
2022-09-15T15:29:23.879Z,29.50
2022-09-15T15:31:50.682Z,29.60
2022-09-15T15:34:23.136Z,29.70
2022-09-15T15:36:49.844Z,29.70
2022-09-15T15:39:27.104Z,29.70
2022-09-15T15:42:02.130Z,29.70
2022-09-15T15:44:29.593Z,29.80
2022-09-15T15:47:03.725Z,29.80
2022-09-15T15:49:32.443Z,29.90
2022-09-15T15:52:00.763Z,30.10
2022-09-15T15:54:28.188Z,30.40
2022-09-15T15:56:54.965Z,30.50
2022-09-15T15:59:21.707Z,30.50
2022-09-15T16:01:50.817Z,30.30
2022-09-15T16:04:17.703Z,30.10
2022-09-15T16:06:45.042Z,30.00
2022-09-15T16:09:13.839Z,30.10
2022-09-15T16:11:40.959Z,30.20
2022-09-15T16:14:09.731Z,30.30
2022-09-15T16:16:36.569Z,30.40
2022-09-15T16:19:03.312Z,30.40
2022-09-15T16:21:36.792Z,30.40
2022-09-15T16:24:04.504Z,30.40
2022-09-15T16:26:31.463Z,30.40
2022-09-15T16:28:58.513Z,30.40
2022-09-15T16:31:25.243Z,30.30
2022-09-15T16:33:51.931Z,30.30
2022-09-15T16:36:18.759Z,30.40
2022-09-15T16:38:45.500Z,30.40
2022-09-15T16:41:12.442Z,30.40
2022-09-15T16:43:39.299Z,30.40
2022-09-15T16:46:06.529Z,30.20
2022-09-15T16:48:34.216Z,30.10
2022-09-15T16:53:48.091Z,29.60
2022-09-15T16:56:15.602Z,29.40
2022-09-15T16:58:42.726Z,29.10
2022-09-15T17:01:19.589Z,28.80
2022-09-15T17:03:46.996Z,28.60
2022-09-15T17:06:14.951Z,28.40
2022-09-15T17:08:41.767Z,28.10
2022-09-15T17:11:16.128Z,28.00
2022-09-15T17:13:43.836Z,27.80
2022-09-15T17:16:19.201Z,27.60
2022-09-15T17:18:46.692Z,27.50
2022-09-15T17:21:13.859Z,27.30
2022-09-15T17:23:42.906Z,27.00
2022-09-15T17:26:11.506Z,26.90
2022-09-15T17:28:38.349Z,26.70
2022-09-15T17:31:13.911Z,26.60
2022-09-15T17:33:40.794Z,26.40
2022-09-15T17:36:08.065Z,26.20
2022-09-15T17:38:35.011Z,26.00
2022-09-15T17:41:01.748Z,26.00
2022-09-15T17:43:29.416Z,25.90
2022-09-15T17:45:56.413Z,25.80
2022-09-15T17:48:23.523Z,25.70
2022-09-15T17:50:50.495Z,25.60
2022-09-15T17:53:21.156Z,25.30
2022-09-15T17:55:48.361Z,25.30
2022-09-15T17:58:15.171Z,25.20
2022-09-15T18:00:42.647Z,25.00
2022-09-15T18:03:23.337Z,24.90
2022-09-15T18:05:50.785Z,24.80
2022-09-15T18:08:18.526Z,24.60
2022-09-15T18:10:45.578Z,24.40
2022-09-15T18:13:20.343Z,24.10
2022-09-15T18:15:48.914Z,24.00
2022-09-15T18:18:25.722Z,23.90
2022-09-15T18:20:53.670Z,23.80
2022-09-15T18:23:21.314Z,23.70
2022-09-15T18:25:48.351Z,23.70
2022-09-15T18:28:15.749Z,23.50
2022-09-15T18:30:44.049Z,23.40
2022-09-15T18:33:15.126Z,23.40
2022-09-15T18:35:42.509Z,23.30
2022-09-15T18:38:09.507Z,23.30
2022-09-15T18:40:36.777Z,23.10
2022-09-15T18:43:03.803Z,23.00
2022-09-15T18:45:30.472Z,22.80
2022-09-15T18:47:57.216Z,22.50
2022-09-15T18:50:25.235Z,22.50
2022-09-15T18:52:52.344Z,22.40
2022-09-15T18:55:19.763Z,22.30
2022-09-15T18:57:47.281Z,22.20
2022-09-15T19:00:15.644Z,22.10
2022-09-15T19:02:42.778Z,22.10
2022-09-15T19:05:15.332Z,22.10
2022-09-15T19:07:42.709Z,22.20
2022-09-15T19:10:11.021Z,22.20
2022-09-15T19:12:38.235Z,22.20
2022-09-15T19:15:10.600Z,22.20
2022-09-15T19:17:38.327Z,22.20
2022-09-15T19:20:06.821Z,22.20
2022-09-15T19:22:33.863Z,22.20
2022-09-15T19:25:00.813Z,22.30
2022-09-15T19:27:27.893Z,22.20
2022-09-15T19:29:54.619Z,22.20
2022-09-15T19:32:22.247Z,22.20
2022-09-15T19:34:49.353Z,22.30
2022-09-15T19:37:18.882Z,22.30
2022-09-15T19:39:46.566Z,22.40
2022-09-15T19:44:41.521Z,22.40
2022-09-15T19:47:08.636Z,22.40
2022-09-15T19:49:35.670Z,22.40
2022-09-15T19:52:02.402Z,22.50
2022-09-15T19:54:29.896Z,22.50
2022-09-15T19:56:57.632Z,22.70
2022-09-15T19:59:30.229Z,22.80
2022-09-15T20:01:58.011Z,23.10
2022-09-15T20:04:24.843Z,23.40
2022-09-15T20:06:51.878Z,23.60
2022-09-15T20:09:18.907Z,23.80
2022-09-15T20:11:45.784Z,24.00
2022-09-15T20:14:12.478Z,24.20
2022-09-15T20:16:39.464Z,24.40
2022-09-15T20:19:06.611Z,24.50
2022-09-15T20:21:51.096Z,24.50
2022-09-15T20:24:19.274Z,24.50
2022-09-15T20:26:46.130Z,24.50
2022-09-15T20:29:13.255Z,24.50
2022-09-15T20:31:40.374Z,24.60
2022-09-15T20:34:07.064Z,24.70
2022-09-15T20:36:35.515Z,24.80
2022-09-15T20:39:03.369Z,24.80
2022-09-15T20:41:31.884Z,24.90
2022-09-15T20:43:58.679Z,24.90
2022-09-15T20:46:25.544Z,25.00
2022-09-15T20:48:52.601Z,25.00
2022-09-15T20:51:20.753Z,25.00
2022-09-15T20:53:48.548Z,25.00
2022-09-15T20:56:15.605Z,24.90
2022-09-15T20:58:42.774Z,25.00
2022-09-15T21:01:10.989Z,25.00
2022-09-15T21:03:39.007Z,25.00
2022-09-15T21:06:10.195Z,25.00
2022-09-15T21:08:36.991Z,25.00
2022-09-15T21:11:05.217Z,25.00
2022-09-15T21:13:33.725Z,25.00
2022-09-15T21:16:02.375Z,25.10
2022-09-15T21:18:32.620Z,25.10
2022-09-15T21:21:07.350Z,25.00
2022-09-15T21:23:37.855Z,24.90
2022-09-15T21:26:06.258Z,24.90
2022-09-15T21:28:33.204Z,24.90
2022-09-15T21:31:13.467Z,24.90
2022-09-15T21:33:40.512Z,24.80
2022-09-15T21:36:09.486Z,24.70
2022-09-15T21:38:37.430Z,24.80
2022-09-15T21:41:06.162Z,24.70
2022-09-15T21:43:35.879Z,24.70
2022-09-15T21:46:04.762Z,24.70
2022-09-15T21:48:32.327Z,24.70
2022-09-15T21:50:59.276Z,24.70
2022-09-15T21:53:26.432Z,24.60
2022-09-15T21:55:53.289Z,24.60
2022-09-15T21:58:20.910Z,24.60
2022-09-15T22:00:48.687Z,24.60
2022-09-15T22:03:16.244Z,24.60
2022-09-15T22:05:43.962Z,24.60
2022-09-15T22:08:11.336Z,24.70
2022-09-15T22:10:38.129Z,24.70
2022-09-15T22:13:06.155Z,24.60
2022-09-15T22:15:33.378Z,24.60
2022-09-15T22:18:00.115Z,24.50
2022-09-15T22:20:28.036Z,24.50
2022-09-15T22:23:01.380Z,24.50
2022-09-15T22:25:28.844Z,24.50
2022-09-15T22:27:55.551Z,24.60
2022-09-15T22:30:22.327Z,24.50
2022-09-15T22:32:49.058Z,24.40
2022-09-15T22:35:17.340Z,24.40
2022-09-15T22:37:44.158Z,24.40
2022-09-15T22:40:11.977Z,24.30
2022-09-15T22:42:38.887Z,24.20
2022-09-15T22:45:05.953Z,24.30
2022-09-15T22:47:33.874Z,24.40
2022-09-15T22:50:00.509Z,24.40
2022-09-15T22:52:27.171Z,24.40
2022-09-15T22:54:53.864Z,24.40
2022-09-15T22:57:20.562Z,24.40
2022-09-15T22:59:47.233Z,24.30
2022-09-15T23:02:13.935Z,24.30
2022-09-15T23:04:40.613Z,24.30
2022-09-15T23:07:07.375Z,24.30
2022-09-15T23:09:34.324Z,24.20
2022-09-15T23:12:01.120Z,24.20
2022-09-15T23:14:30.426Z,24.10
2022-09-15T23:16:57.532Z,24.20
2022-09-15T23:19:24.196Z,24.20
2022-09-15T23:21:50.874Z,24.20
2022-09-15T23:24:17.517Z,24.20
2022-09-15T23:26:44.171Z,24.10
2022-09-15T23:29:10.872Z,24.10
2022-09-15T23:31:37.603Z,24.10
2022-09-15T23:34:04.658Z,24.10
2022-09-15T23:36:31.361Z,24.10
2022-09-15T23:38:58.466Z,24.10
2022-09-15T23:41:25.221Z,24.00
2022-09-15T23:43:51.909Z,24.00
2022-09-15T23:46:18.632Z,23.90
2022-09-15T23:48:45.369Z,24.00
2022-09-15T23:51:12.077Z,24.00
2022-09-15T23:53:38.819Z,23.90
2022-09-15T23:56:05.830Z,23.90
2022-09-15T23:58:32.532Z,23.90
